ADDS METAR Data INFO
IDs: Format: Raw Decoded Include TAF

Data at: 0402 UTC 23 Sep 2017

KSLR 230355Z AUTO 15005KT 10SM CLR 26/19 A2997 RMK AO2 T02570192
KSLR 230335Z AUTO 14005KT 10SM CLR 26/19 A2996 RMK AO2 T02600191
KSLR 230315Z AUTO 14004KT 10SM CLR 26/19 A2996 RMK AO2 T02630190
KSLR 230255Z AUTO 14004KT 10SM CLR 27/19 A2996 RMK AO2 T02650190
KSLR 230235Z AUTO 14005KT 10SM CLR 27/19 A2996 RMK AO2 T02670188
KSLR 230215Z AUTO 13004KT 10SM CLR 27/19 A2995 RMK AO2 T02670185
KSLR 230155Z AUTO 13004KT 10SM CLR 27/19 A2996 RMK AO2 T02700185
KSLR 230135Z AUTO 12004KT 10SM CLR 27/18 A2995 RMK AO2 T02700181
KSLR 230115Z AUTO 13004KT 10SM CLR 28/18 A2995 RMK AO2 T02810180
KSLR 230055Z AUTO 14004KT 10SM CLR 29/18 A2994 RMK AO2 T02850176
KSLR 230035Z AUTO 15004KT 10SM CLR 29/17 A2994 RMK AO2 T02910172
KSLR 230015Z AUTO 15004KT 10SM CLR 30/17 A2994 RMK AO2 T03000169
KSLR 222355Z AUTO 14005KT 10SM CLR 31/17 A2994 RMK AO2 T03100171 10335 20310
KSLR 222335Z AUTO 13008KT 10SM CLR 32/17 A2994 RMK AO2 T03170168
KSLR 222315Z AUTO 14008KT 10SM CLR 32/16 A2994 RMK AO2 T03230164
KSLR 222255Z AUTO 13008KT 10SM CLR 33/16 A2994 RMK AO2 T03270162
KSLR 222235Z AUTO 13007KT 10SM CLR 33/16 A2994 RMK AO2 T03290161
KSLR 222215Z AUTO 12009KT 10SM SCT060 34/17 A2994 RMK AO2 T03350165
KSLR 222155Z AUTO 12009KT 10SM SCT055 33/17 A2994 RMK AO2 T03310167
KSLR 222135Z AUTO 13007KT 10SM SCT055 33/17 A2995 RMK AO2 T03330167
KSLR 222115Z AUTO 19010KT 10SM CLR 33/17 A2995 RMK AO2 T03330171
KSLR 222055Z AUTO 17006KT 10SM CLR 33/17 A2996 RMK AO2 T03310167
KSLR 222035Z AUTO 16004KT 10SM CLR 33/17 A2997 RMK AO2 T03280174
KSLR 222015Z AUTO 17006KT 10SM CLR 33/17 A2998 RMK AO2 T03320174
KSLR 221955Z AUTO 13008KT 10SM CLR 33/17 A2998 RMK AO2 T03280174
KSLR 221935Z AUTO 20009KT 10SM CLR 33/17 A2999 RMK AO2 T03250172
KSLR 221915Z AUTO 18008G14KT 10SM CLR 32/17 A3000 RMK AO2 T03230173
KSLR 221855Z AUTO 18009G14KT 10SM CLR 32/18 A3001 RMK AO2 T03190180
KSLR 221835Z AUTO 16006KT 10SM CLR 32/18 A3001 RMK AO2 T03160180
KSLR 221815Z AUTO 17008KT 10SM SCT044 32/18 A3002 RMK AO2 T03150181
KSLR 221755Z AUTO 18006KT 10SM CLR 31/19 A3003 RMK AO2 T03100190 10310 20226
KSLR 221735Z AUTO 18005KT 10SM CLR 31/19 A3003 RMK AO2 T03080186
KSLR 221715Z AUTO 18006KT 10SM CLR 30/19 A3004 RMK AO2 T03040194
KSLR 221655Z AUTO 20006KT 10SM CLR 30/19 A3004 RMK AO2 T02970191
KSLR 221635Z AUTO 20007KT 10SM SCT025 29/20 A3004 RMK AO2 T02920201
KSLR 221615Z AUTO 16004KT 10SM SCT025 29/21 A3005 RMK AO2 T02850209
KSLR 221555Z AUTO 19006KT 10SM SCT017 28/21 A3005 RMK AO2 T02840210
KSLR 221535Z AUTO 19006KT 10SM BKN017 28/21 A3005 RMK AO2 T02760213
KSLR 221515Z AUTO 21008KT 10SM OVC015 27/22 A3004 RMK AO2 T02670218
KSLR 221455Z AUTO 18007KT 7SM SCT009 OVC015 26/23 A3004 RMK AO2 T02590228
KSLR 221435Z AUTO 20007KT 5SM BR BKN008 OVC015 25/23 A3004 RMK AO2 T02490230
KSLR 221415Z AUTO 19007KT 5SM BR OVC010 25/23 A3004 RMK AO2 T02460230
KSLR 221355Z AUTO 19005KT 7SM BKN008 OVC012 24/23 A3004 RMK AO2 T02430231
KSLR 221335Z AUTO 20006KT 5SM BR OVC006 24/23 A3003 RMK AO2 T02400231
KSLR 221315Z AUTO 18006KT 5SM BR OVC006 24/23 A3003 RMK AO2 T02400232
KSLR 221255Z AUTO 19004KT 4SM BR OVC006 24/24 A3002 RMK AO2 T02370235
KSLR 221235Z AUTO 18004KT 4SM BR OVC006 24/24 A3002 RMK AO2 T02350235
KSLR 221215Z AUTO 19006KT 7SM OVC008 23/23 A3001 RMK AO2 T02300230
KSLR 221155Z AUTO 18004KT 5SM BR SCT008 22/22 A3001 RMK AO2 T02240224 10246 20212
KSLR 221135Z AUTO 00000KT 3SM BR CLR 21/21 A3000 RMK AO2 T02120212
KSLR 221115Z AUTO 00000KT 3SM BR CLR 22/22 A3000 RMK AO2 T02160216
KSLR 221055Z AUTO 00000KT 3SM BR CLR 22/22 A2999 RMK AO2 T02170216
KSLR 221035Z AUTO 00000KT 5SM BR CLR 22/22 A2999 RMK AO2 T02200216
KSLR 221015Z AUTO 00000KT 7SM CLR 23/22 A2999 RMK AO2 T02270223
KSLR 220955Z AUTO 17004KT 10SM CLR 23/23 A2999 RMK AO2 T02300225
KSLR 220935Z AUTO 17003KT 7SM CLR 23/22 A2998 RMK AO2 T02260224
KSLR 220915Z AUTO 18003KT 7SM CLR 22/22 A2999 RMK AO2 T02240222
KSLR 220855Z AUTO 00000KT 7SM CLR 22/22 A2998 RMK AO2 T02230220
KSLR 220835Z AUTO 00000KT 10SM CLR 23/22 A2998 RMK AO2 T02310222
KSLR 220815Z AUTO 00000KT 10SM CLR 23/22 A2998 RMK AO2 T02330222
KSLR 220755Z AUTO 16004KT 10SM CLR 24/22 A2998 RMK AO2 T02350222
KSLR 220735Z AUTO 00000KT 10SM CLR 24/22 A2998 RMK AO2 T02380223
KSLR 220715Z AUTO 17006KT 10SM CLR 24/22 A2998 RMK AO2 T02400223
KSLR 220655Z AUTO 17005KT 10SM CLR 24/22 A2998 RMK AO2 T02410222
KSLR 220635Z AUTO 17007KT 10SM CLR 24/22 A2998 RMK AO2 T02430221
KSLR 220615Z AUTO 17005KT 10SM CLR 25/22 A2997 RMK AO2 T02450219
KSLR 220555Z AUTO 17006KT 10SM CLR 25/22 A2998 RMK AO2 T02460217 10321 20246 403460246
KSLR 220535Z AUTO 17006KT 10SM CLR 25/22 A2998 RMK AO2 T02460216
KSLR 220515Z AUTO 17006KT 10SM CLR 25/22 A2998 RMK AO2 T02460216
KSLR 220455Z AUTO 17006KT 10SM CLR 25/22 A2998 RMK AO2 T02470215
KSLR 220435Z AUTO 17006KT 10SM CLR 25/22 A2999 RMK AO2 T02490215
KSLR 220415Z AUTO 16007KT 10SM CLR 25/21 A2999 RMK AO2 T02500212
KSLR 220355Z AUTO 16007KT 10SM CLR 25/21 A2999 RMK AO2 T02500210
KSLR 220335Z AUTO 16008KT 10SM CLR 26/21 A2998 RMK AO2 T02550208
KSLR 220315Z AUTO 16007KT 10SM CLR 26/21 A2998 RMK AO2 T02550207
KSLR 220255Z AUTO 15008KT 10SM CLR 26/20 A2998 RMK AO2 LTG DSNT S T02590204
KSLR 220235Z AUTO 15009KT 10SM CLR 26/20 A2997 RMK AO2 T02630201
KSLR 220215Z AUTO 17009G14KT 7SM CLR 27/20 A2996 RMK AO2 T02660200
KSLR 220155Z AUTO 17008G14KT 7SM CLR 27/21 A2996 RMK AO2 T02690205
KSLR 220135Z AUTO 16007KT 10SM CLR 27/21 A2995 RMK AO2 T02710211
KSLR 220115Z AUTO 17006KT 10SM CLR 28/21 A2994 RMK AO2 T02750212
KSLR 220055Z AUTO 17011G19KT 7SM SCT055 SCT070 29/21 A2993 RMK AO2 T02860206
KSLR 220035Z AUTO 15014G28KT 10SM SCT055 BKN070 31/20 A2992 RMK AO2 T03090202
KSLR 220015Z AUTO 14005KT 10SM CLR 31/20 A2991 RMK AO2 T03140196
KSLR 212355Z AUTO 14005KT 10SM CLR 32/20 A2991 RMK AO2 T03220197 10346 20319
KSLR 212335Z AUTO 14006KT 10SM CLR 33/19 A2991 RMK AO2 T03280191
KSLR 212315Z AUTO 15006KT 10SM CLR 33/19 A2991 RMK AO2 T03320194
KSLR 212255Z AUTO 16008KT 10SM CLR 33/19 A2991 RMK AO2 T03340194
KSLR 212235Z AUTO 16008KT 10SM CLR 34/20 A2990 RMK AO2 T03360195
KSLR 212215Z AUTO 17008KT 10SM CLR 34/19 A2991 RMK AO2 T03400191
KSLR 212155Z AUTO 14009KT 10SM CLR 34/19 A2991 RMK AO2 T03420190
KSLR 212135Z AUTO 13007KT 10SM SCT050 SCT065 34/19 A2991 RMK AO2 T03420191
KSLR 212115Z AUTO 14007KT 10SM BKN050 BKN065 34/20 A2992 RMK AO2 T03420198
KSLR 212055Z AUTO 15008KT 10SM SCT048 SCT055 34/20 A2992 RMK AO2 T03410199
KSLR 212035Z AUTO 14006G09KT 10SM BKN046 BKN060 BKN070 34/20 A2994 RMK AO2 T03400202
KSLR 212015Z AUTO 14009KT 10SM BKN044 BKN060 OVC070 34/21 A2994 RMK AO2 T03400208
KSLR 211955Z AUTO 14008KT 10SM BKN042 BKN050 33/21 A2995 RMK AO2 T03330210
KSLR 211935Z AUTO 20006KT 10SM SCT044 33/21 A2996 RMK AO2 T03340205
KSLR 211915Z AUTO 18010KT 10SM SCT042 SCT050 SCT055 33/21 A2997 RMK AO2 T03310208
KSLR 211855Z AUTO 17009G14KT 10SM SCT040 SCT048 SCT050 33/21 A2998 RMK AO2 T03310206
KSLR 211835Z AUTO 16009KT 10SM SCT040 SCT045 32/21 A2998 RMK AO2 T03230209
KSLR 211815Z AUTO 16009KT 10SM SCT037 SCT045 32/21 A2999 RMK AO2 T03240212
KSLR 211755Z AUTO 18008KT 10SM SCT033 SCT043 32/21 A3000 RMK AO2 T03200210 10322 20255
KSLR 211735Z AUTO 19010KT 10SM BKN033 BKN041 31/22 A3000 RMK AO2 T03140218
KSLR 211715Z AUTO 21007KT 10SM BKN033 31/22 A3001 RMK AO2 T03100218
KSLR 211655Z AUTO 20008KT 10SM SCT030 BKN036 31/22 A3001 RMK AO2 T03050218
KSLR 211635Z AUTO 18008KT 10SM SCT028 SCT032 30/22 A3002 RMK AO2 T02970222
KSLR 211615Z AUTO 18007KT 10SM SCT026 BKN032 30/22 A3001 RMK AO2 T02970223